Time,TemperatureF,DewpointF,PressureIn,WindDirection,WindDirectionDegrees,WindSpeedMPH,WindSpeedGustMPH,Humidity,HourlyPrecipIn,Conditions,Clouds,dailyrainin,SoftwareType,DateUTC
2013-02-08 00:00:00,49.1,43.0,30.00,NNW,348,11.0,11.0,79,0.00,,,0.00,,2013-02-08 08:00:00,
2013-02-08 00:10:00,49.0,43.0,30.00,NW,322,6.0,10.0,79,0.00,,,0.00,,2013-02-08 08:10:00,
2013-02-08 00:20:00,48.8,44.0,30.01,NW,304,10.0,20.0,82,0.00,,,0.00,,2013-02-08 08:20:00,
2013-02-08 00:30:00,47.5,43.0,30.00,NW,311,8.0,16.0,85,0.00,,,0.00,,2013-02-08 08:30:00,
2013-02-08 00:40:00,46.9,43.0,30.00,NNW,327,11.0,15.0,86,0.00,,,0.00,,2013-02-08 08:40:00,
2013-02-08 00:50:00,46.5,43.0,29.99,NNW,340,5.0,12.0,86,0.00,,,0.00,,2013-02-08 08:50:00,
2013-02-08 01:00:00,46.1,42.0,29.99,North,9,10.0,12.0,85,0.00,,,0.00,,2013-02-08 09:00:00,
2013-02-08 01:10:00,46.1,42.0,29.99,NNE,12,9.0,10.0,85,0.00,,,0.00,,2013-02-08 09:10:00,
2013-02-08 01:20:00,46.4,42.0,29.98,North,11,10.0,12.0,84,0.00,,,0.00,,2013-02-08 09:20:00,
2013-02-08 01:30:00,46.7,42.0,29.98,North,5,4.0,8.0,84,0.00,,,0.00,,2013-02-08 09:30:00,
2013-02-08 01:40:00,47.0,42.0,29.98,North,350,7.0,10.0,83,0.00,,,0.00,,2013-02-08 09:40:00,
2013-02-08 01:50:00,46.8,42.0,29.97,North,9,6.0,8.0,82,0.00,,,0.00,,2013-02-08 09:50:00,
2013-02-08 02:00:00,46.2,41.0,29.97,NNW,336,5.0,6.0,82,0.00,,,0.00,,2013-02-08 10:00:00,
2013-02-08 02:10:00,46.0,41.0,29.96,NNW,343,3.0,5.0,82,0.00,,,0.00,,2013-02-08 10:10:00,
2013-02-08 02:20:00,45.7,41.0,29.96,North,349,3.0,4.0,82,0.00,,,0.00,,2013-02-08 10:20:00,
2013-02-08 02:30:00,45.7,41.0,29.96,NNW,348,2.0,3.0,83,0.00,,,0.00,,2013-02-08 10:30:00,
2013-02-08 02:40:00,45.8,41.0,29.95,NNW,348,1.0,3.0,84,0.00,,,0.00,,2013-02-08 10:40:00,
2013-02-08 02:50:00,46.0,41.0,29.95,NNW,348,2.0,3.0,84,0.00,,,0.00,,2013-02-08 10:50:00,
2013-02-08 03:00:00,46.3,42.0,29.94,North,349,2.0,2.0,84,0.00,,,0.00,,2013-02-08 11:00:00,
2013-02-08 03:10:00,46.6,42.0,29.94,North,349,1.0,2.0,84,0.00,,,0.00,,2013-02-08 11:10:00,
2013-02-08 03:20:00,46.7,42.0,29.94,North,349,0.0,0.0,84,0.00,,,0.00,,2013-02-08 11:20:00,
2013-02-08 03:30:00,46.8,42.0,29.94,NNW,329,2.0,3.0,84,0.00,,,0.00,,2013-02-08 11:30:00,
2013-02-08 03:40:00,46.7,42.0,29.94,NNW,346,3.0,5.0,85,0.00,,,0.01,,2013-02-08 11:40:00,
2013-02-08 03:50:00,46.5,42.0,29.93,NW,316,3.0,5.0,85,0.00,,,0.01,,2013-02-08 11:50:00,
2013-02-08 04:00:00,46.5,43.0,29.94,NNE,27,8.0,11.0,86,0.00,,,0.02,,2013-02-08 12:00:00,
2013-02-08 04:10:00,43.9,40.0,29.94,NE,54,9.0,12.0,86,0.00,,,0.02,,2013-02-08 12:10:00,
2013-02-08 04:20:00,43.4,40.0,29.94,NE,47,9.0,11.0,88,0.00,,,0.02,,2013-02-08 12:20:00,
2013-02-08 04:30:00,43.4,40.0,29.94,NE,42,9.0,10.0,89,0.00,,,0.02,,2013-02-08 12:30:00,
2013-02-08 04:40:00,44.0,41.0,29.93,NNE,32,8.0,9.0,89,0.00,,,0.02,,2013-02-08 12:40:00,
2013-02-08 04:50:00,44.0,41.0,29.93,NE,54,7.0,11.0,89,0.00,,,0.02,,2013-02-08 12:50:00,
2013-02-08 05:00:00,44.8,41.0,29.93,North,5,7.0,8.0,88,0.00,,,0.02,,2013-02-08 13:00:00,
2013-02-08 05:10:00,45.3,41.0,29.93,North,355,5.0,8.0,86,0.00,,,0.02,,2013-02-08 13:10:00,
2013-02-08 05:20:00,45.4,41.0,29.93,NNW,346,2.0,4.0,85,0.00,,,0.02,,2013-02-08 13:20:00,
2013-02-08 05:30:00,45.0,40.0,29.92,NE,42,1.0,3.0,84,0.00,,,0.02,,2013-02-08 13:30:00,
2013-02-08 05:40:00,44.7,40.0,29.92,NE,42,0.0,2.0,84,0.00,,,0.02,,2013-02-08 13:40:00,
2013-02-08 05:50:00,44.5,40.0,29.92,ENE,65,3.0,3.0,84,0.00,,,0.02,,2013-02-08 13:50:00,
2013-02-08 06:00:00,44.6,40.0,29.92,ENE,61,2.0,3.0,84,0.00,,,0.02,,2013-02-08 14:00:00,
2013-02-08 06:10:00,44.5,40.0,29.92,ENE,61,2.0,4.0,83,0.00,,,0.02,,2013-02-08 14:10:00,
2013-02-08 06:20:00,44.3,40.0,29.92,ENE,59,2.0,3.0,84,0.00,,,0.02,,2013-02-08 14:20:00,
2013-02-08 06:30:00,44.2,40.0,29.92,ENE,65,2.0,4.0,84,0.00,,,0.02,,2013-02-08 14:30:00,
2013-02-08 06:40:00,44.8,41.0,29.92,ENE,65,1.0,3.0,85,0.00,,,0.02,,2013-02-08 14:40:00,
2013-02-08 06:50:00,44.9,41.0,29.92,ENE,63,3.0,3.0,85,0.00,,,0.02,,2013-02-08 14:50:00,
2013-02-08 07:00:00,44.5,40.0,29.93,NE,44,7.0,8.0,85,0.00,,,0.02,,2013-02-08 15:00:00,
2013-02-08 07:10:00,43.8,40.0,29.93,NE,35,6.0,8.0,87,0.00,,,0.02,,2013-02-08 15:10:00,
2013-02-08 07:20:00,43.4,40.0,29.93,ENE,65,4.0,9.0,88,0.43,,,0.04,,2013-02-08 15:20:00,
2013-02-08 07:30:00,43.3,40.0,29.92,East,86,6.0,7.0,89,0.14,,,0.06,,2013-02-08 15:30:00,
2013-02-08 07:40:00,43.3,40.0,29.92,East,89,7.0,10.0,89,0.04,,,0.06,,2013-02-08 15:40:00,
2013-02-08 07:50:00,43.6,41.0,29.92,East,86,5.0,6.0,89,0.00,,,0.06,,2013-02-08 15:50:00,
2013-02-08 08:01:00,43.9,41.0,29.92,ENE,67,5.0,7.0,89,0.00,,,0.06,,2013-02-08 16:01:00,
2013-02-08 08:10:00,44.0,41.0,29.92,ENE,74,7.0,9.0,88,0.00,,,0.06,,2013-02-08 16:10:00,
2013-02-08 08:20:00,44.1,41.0,29.92,ENE,78,5.0,7.0,88,0.00,,,0.06,,2013-02-08 16:20:00,
2013-02-08 08:30:00,44.4,41.0,29.93,ENE,78,3.0,4.0,88,0.00,,,0.06,,2013-02-08 16:30:00,
2013-02-08 08:40:00,44.9,42.0,29.93,East,86,3.0,6.0,88,0.00,,,0.06,,2013-02-08 16:40:00,
2013-02-08 09:40:00,46.5,43.0,29.93,ESE,122,3.0,5.0,88,0.00,,,0.07,,2013-02-08 17:40:00,
2013-02-08 09:50:00,47.0,44.0,29.93,ESE,119,4.0,6.0,88,0.00,,,0.07,,2013-02-08 17:50:00,
2013-02-08 10:00:00,47.5,44.0,29.93,SE,136,4.0,7.0,88,0.00,,,0.07,,2013-02-08 18:00:00,
2013-02-08 10:10:00,47.6,44.0,29.93,South,180,0.0,3.0,87,0.00,,,0.07,,2013-02-08 18:10:00,
2013-02-08 10:20:00,47.6,44.0,29.93,South,186,0.0,3.0,87,0.00,,,0.07,,2013-02-08 18:20:00,
2013-02-08 10:30:00,47.9,44.0,29.93,South,186,0.0,0.0,87,0.00,,,0.07,,2013-02-08 18:30:00,
2013-02-08 10:40:00,47.6,43.0,29.93,East,84,0.0,3.0,85,0.00,,,0.07,,2013-02-08 18:40:00,
2013-02-08 10:50:00,48.1,44.0,29.94,WNW,300,2.0,3.0,85,0.00,,,0.07,,2013-02-08 18:50:00,
2013-02-08 11:00:00,48.2,44.0,29.93,West,259,0.0,5.0,84,0.00,,,0.07,,2013-02-08 19:00:00,
2013-02-08 11:10:00,48.1,44.0,29.93,NNW,327,1.0,3.0,84,0.00,,,0.07,,2013-02-08 19:10:00,
2013-02-08 11:20:00,48.3,44.0,29.93,West,275,4.0,6.0,84,0.00,,,0.07,,2013-02-08 19:20:00,
2013-02-08 11:30:00,48.1,43.0,29.93,West,264,6.0,7.0,83,0.00,,,0.07,,2013-02-08 19:30:00,
2013-02-08 11:40:00,48.1,43.0,29.93,West,278,7.0,7.0,83,0.00,,,0.07,,2013-02-08 19:40:00,
2013-02-08 11:50:00,48.3,43.0,29.93,West,274,7.0,8.0,83,0.00,,,0.07,,2013-02-08 19:50:00,
2013-02-08 12:00:00,48.6,44.0,29.92,West,275,5.0,8.0,83,0.00,,,0.07,,2013-02-08 20:00:00,
2013-02-08 12:10:00,48.9,44.0,29.92,West,271,4.0,6.0,83,0.00,,,0.07,,2013-02-08 20:10:00,
2013-02-08 12:20:00,49.4,44.0,29.91,West,267,3.0,5.0,83,0.00,,,0.07,,2013-02-08 20:20:00,
2013-02-08 12:30:00,49.3,43.0,29.91,West,269,7.0,12.0,80,0.00,,,0.07,,2013-02-08 20:30:00,
2013-02-08 12:40:00,48.7,43.0,29.91,West,281,6.0,10.0,81,0.00,,,0.07,,2013-02-08 20:40:00,
2013-02-08 12:50:00,48.5,44.0,29.91,West,268,5.0,8.0,83,0.00,,,0.07,,2013-02-08 20:50:00,
2013-02-08 13:01:00,49.3,44.0,29.90,West,277,4.0,10.0,83,0.00,,,0.07,,2013-02-08 21:01:00,
2013-02-08 13:10:00,50.1,45.0,29.90,West,263,10.0,13.0,82,0.00,,,0.07,,2013-02-08 21:10:00,
2013-02-08 13:20:00,50.3,44.0,29.90,West,273,11.0,13.0,80,0.00,,,0.07,,2013-02-08 21:20:00,
2013-02-08 13:30:00,50.5,45.0,29.90,West,279,12.0,14.0,80,0.00,,,0.07,,2013-02-08 21:30:00,
2013-02-08 13:40:00,50.6,44.0,29.90,West,278,13.0,15.0,79,0.00,,,0.07,,2013-02-08 21:40:00,
2013-02-08 13:50:00,50.2,45.0,29.90,West,275,10.0,12.0,82,0.00,,,0.07,,2013-02-08 21:50:00,
2013-02-08 14:00:00,50.9,45.0,29.90,West,273,7.0,14.0,81,0.00,,,0.07,,2013-02-08 22:00:00,
2013-02-08 14:10:00,50.5,45.0,29.90,WNW,287,10.0,12.0,80,0.00,,,0.07,,2013-02-08 22:10:00,
2013-02-08 14:20:00,50.8,45.0,29.89,WNW,284,6.0,16.0,80,0.00,,,0.07,,2013-02-08 22:20:00,
2013-02-08 14:30:00,50.3,44.0,29.89,NW,314,8.0,14.0,78,0.00,,,0.07,,2013-02-08 22:30:00,
2013-02-08 14:40:00,50.5,44.0,29.89,WNW,289,7.0,12.0,79,0.00,,,0.07,,2013-02-08 22:40:00,
2013-02-08 14:50:00,50.6,44.0,29.89,West,263,7.0,13.0,79,0.00,,,0.07,,2013-02-08 22:50:00,
2013-02-08 15:00:00,51.4,45.0,29.89,NW,311,9.0,16.0,78,0.00,,,0.07,,2013-02-08 23:00:00,
2013-02-08 15:10:00,51.5,45.0,29.89,West,275,14.0,17.0,78,0.00,,,0.07,,2013-02-08 23:10:00,
2013-02-08 15:20:00,52.6,46.0,29.89,West,278,10.0,18.0,78,0.00,,,0.07,,2013-02-08 23:20:00,
2013-02-08 15:30:00,52.9,46.0,29.90,WNW,289,12.0,20.0,76,0.00,,,0.07,,2013-02-08 23:30:00,
2013-02-08 15:40:00,51.4,45.0,29.90,NNW,332,11.0,15.0,80,0.00,,,0.07,,2013-02-08 23:40:00,
2013-02-08 15:50:00,50.1,45.0,29.90,NW,313,13.0,16.0,81,0.00,,,0.08,,2013-02-08 23:50:00,
2013-02-08 16:00:00,50.0,45.0,29.90,WNW,298,2.0,8.0,82,0.00,,,0.08,,2013-02-09 00:00:00,
2013-02-08 16:10:00,49.9,44.0,29.91,NW,317,4.0,6.0,81,0.00,,,0.08,,2013-02-09 00:10:00,
2013-02-08 16:20:00,50.6,45.0,29.90,NNW,331,5.0,8.0,80,0.00,,,0.08,,2013-02-09 00:20:00,
2013-02-08 16:30:00,50.9,45.0,29.91,NNW,342,3.0,5.0,80,0.00,,,0.08,,2013-02-09 00:30:00,
2013-02-08 16:40:00,50.6,44.0,29.91,NNW,338,4.0,7.0,78,0.00,,,0.08,,2013-02-09 00:40:00,
2013-02-08 16:50:00,49.9,43.0,29.91,North,5,4.0,8.0,78,0.00,,,0.08,,2013-02-09 00:50:00,
2013-02-08 17:00:00,49.5,43.0,29.91,NNW,338,3.0,6.0,79,0.00,,,0.08,,2013-02-09 01:00:00,
2013-02-08 17:10:00,49.3,43.0,29.92,North,349,4.0,8.0,80,0.00,,,0.08,,2013-02-09 01:10:00,
2013-02-08 17:20:00,49.6,43.0,29.91,NNW,331,6.0,8.0,79,0.00,,,0.08,,2013-02-09 01:20:00,
2013-02-08 17:30:00,49.4,43.0,29.91,NNW,347,5.0,7.0,78,0.00,,,0.08,,2013-02-09 01:30:00,
2013-02-08 17:40:00,48.9,43.0,29.92,North,360,4.0,7.0,79,0.00,,,0.08,,2013-02-09 01:40:00,
2013-02-08 17:50:00,48.4,42.0,29.91,North,5,5.0,6.0,79,0.00,,,0.08,,2013-02-09 01:50:00,
2013-02-08 18:00:00,48.1,42.0,29.92,NNW,338,5.0,6.0,80,0.00,,,0.08,,2013-02-09 02:00:00,
2013-02-08 18:10:00,48.2,42.0,29.92,NNE,16,4.0,5.0,80,0.00,,,0.08,,2013-02-09 02:10:00,
2013-02-08 18:20:00,48.1,43.0,29.92,NE,38,3.0,6.0,81,0.00,,,0.08,,2013-02-09 02:20:00,
2013-02-08 18:30:00,47.9,42.0,29.93,NNE,21,5.0,7.0,81,0.00,,,0.08,,2013-02-09 02:30:00,
2013-02-08 18:40:00,48.0,42.0,29.93,NNE,13,4.0,8.0,80,0.00,,,0.08,,2013-02-09 02:40:00,
2013-02-08 18:50:00,48.3,43.0,29.94,NNW,329,6.0,8.0,81,0.00,,,0.08,,2013-02-09 02:50:00,
2013-02-08 19:00:00,48.2,43.0,29.94,NNW,348,7.0,8.0,81,0.00,,,0.08,,2013-02-09 03:00:00,
2013-02-08 19:10:00,48.1,42.0,29.94,NNE,22,4.0,8.0,80,0.00,,,0.08,,2013-02-09 03:10:00,
2013-02-08 19:20:00,48.3,42.0,29.94,North,5,6.0,7.0,78,0.00,,,0.08,,2013-02-09 03:20:00,
2013-02-08 19:30:00,48.3,41.0,29.94,NNW,348,5.0,7.0,76,0.00,,,0.08,,2013-02-09 03:30:00,
2013-02-08 19:40:00,48.1,40.0,29.95,NNE,27,5.0,6.0,73,0.00,,,0.08,,2013-02-09 03:40:00,
2013-02-08 19:50:00,47.6,39.0,29.95,NNE,32,6.0,7.0,72,0.00,,,0.08,,2013-02-09 03:50:00,
2013-02-08 20:00:00,47.4,38.0,29.95,NNE,30,6.0,8.0,71,0.00,,,0.08,,2013-02-09 04:00:00,
2013-02-08 20:10:00,47.2,39.0,29.95,NW,318,2.0,4.0,74,0.00,,,0.08,,2013-02-09 04:10:00,
2013-02-08 20:20:00,46.7,39.0,29.95,North,355,4.0,6.0,75,0.00,,,0.08,,2013-02-09 04:20:00,
2013-02-08 20:30:00,47.3,40.0,29.95,NNW,333,5.0,7.0,77,0.00,,,0.08,,2013-02-09 04:30:00,
2013-02-08 20:40:00,47.1,40.0,29.95,NNW,329,3.0,4.0,76,0.00,,,0.08,,2013-02-09 04:40:00,
2013-02-08 20:50:00,46.5,40.0,29.96,NNE,16,3.0,6.0,77,0.00,,,0.08,,2013-02-09 04:50:00,
2013-02-08 21:00:00,46.9,40.0,29.95,North,355,6.0,12.0,78,0.00,,,0.08,,2013-02-09 05:00:00,
2013-02-08 21:10:00,47.4,41.0,29.96,NNW,339,6.0,10.0,77,0.00,,,0.08,,2013-02-09 05:10:00,
2013-02-08 21:20:00,47.3,40.0,29.96,North,355,3.0,8.0,77,0.00,,,0.08,,2013-02-09 05:20:00,
2013-02-08 21:30:00,47.0,40.0,29.96,North,355,6.0,8.0,77,0.00,,,0.08,,2013-02-09 05:30:00,
2013-02-08 21:40:00,47.3,40.0,29.96,North,355,6.0,10.0,75,0.00,,,0.08,,2013-02-09 05:40:00,
2013-02-08 21:50:00,47.3,39.0,29.96,NNE,13,5.0,7.0,73,0.00,,,0.08,,2013-02-09 05:50:00,
2013-02-08 22:00:00,47.1,39.0,29.96,NNE,22,5.0,6.0,73,0.00,,,0.08,,2013-02-09 06:00:00,
2013-02-08 22:10:00,46.8,39.0,29.97,North,360,5.0,6.0,73,0.00,,,0.08,,2013-02-09 06:10:00,
2013-02-08 22:20:00,47.0,38.0,29.97,NNW,347,3.0,7.0,72,0.00,,,0.08,,2013-02-09 06:20:00,
2013-02-08 22:30:00,47.1,39.0,29.96,North,360,4.0,5.0,74,0.00,,,0.08,,2013-02-09 06:30:00,
2013-02-08 22:40:00,47.3,40.0,29.97,NNW,348,5.0,8.0,75,0.00,,,0.08,,2013-02-09 06:40:00,
2013-02-08 22:50:00,47.3,40.0,29.97,North,355,4.0,8.0,76,0.00,,,0.08,,2013-02-09 06:50:00,
2013-02-08 23:00:00,47.4,40.0,29.97,NNW,338,5.0,8.0,76,0.00,,,0.08,,2013-02-09 07:00:00,
2013-02-08 23:10:00,47.4,41.0,29.97,North,5,4.0,8.0,77,0.00,,,0.08,,2013-02-09 07:10:00,
2013-02-08 23:20:00,47.3,40.0,29.97,North,355,8.0,10.0,77,0.00,,,0.08,,2013-02-09 07:20:00,
2013-02-08 23:30:00,47.2,40.0,29.97,North,5,4.0,7.0,77,0.00,,,0.08,,2013-02-09 07:30:00,
2013-02-08 23:40:00,47.4,41.0,29.97,NNW,331,7.0,9.0,77,0.00,,,0.08,,2013-02-09 07:40:00,
2013-02-08 23:50:00,47.4,41.0,29.97,North,355,5.0,9.0,77,0.00,,,0.08,,2013-02-09 07:50:00,